El Salvador International Airport
MSLP : now visible

Airfield :











YOU CAN JOIN US ON...

 
LOGIN :

Register | Disclaimer

   EN    FR    IT 

 









Legend :    VFR   Marginal VFR   IFR   Intensive IFR   Very Intensive IFR
Visi :
Ceiling :
>= 8 km
>= 3000ft
5 to 8 km
1000 to 3000 ft
1500m to 5 km
500 to 1000 ft
800 to 1500m
200 to 500 ft
< 800m
< 200 ft
Symbols :   Thunderstorms  Fog  Heavy snow  Heavy precipitations  Wind > 20 kt






- Airport Elevation : 101 ft
- IATA code : SAL


MSLP - El Salvador International

CURRENT METAR :
  • 260050Z 01003KT 270V050 9999 FEW015 BKN033 FEW037CB 26/24 Q1012 A2989 NOSIG RMK CB E W

EXPIRED METARs :
  • 252350Z 02004KT 360V060 9999 VCSH FEW015 BKN033 FEW037CB 25/23 Q1011 A2986 NOSIG RMK CB W NW
  • 252250Z 35007KT 9999 VCSH SCT010 FEW033CB BKN048 26/23 Q1011 A2985 NOSIG RMK CB W NW

TAF TAF MSLP
Valid from the 26 at 00:00 until the 27 at 00:00 UTC


252125Z 2600/2624 VRB03KT 9999 SCT023 SCT033CB TX32/2618Z TN23/2612Z
TEMPO 2601/2605 07010KT 3000 TSRA BKN020 BKN033CB
FM260700 06006KT 9999 FEW023 FEW033CB SCT060
FM261800 21012KT 9999 SCT023 SCT033CB
MHTG FIR / North America



MET'MAP, your aeronautical weather chart ! - Copyright ORBIFLY December 2007 - Disclaimer

ORBIFLY MET'MAP TEAM :

Programming & Development : Alexandra Zaïnal
Concept & original design : Baudouin d'Aumeries
Assistance for programming : Marc-Olivier Méhu
Technical & hardware support : Manuel Goepfert

Contact : metmap@orbifly.com




SOURCES & CREDITS :

   NOAA       Earth
Advisory